createdAt,value
2023-04-08T00:01:53.611Z,71.53
2023-04-08T00:04:21.793Z,71.61
2023-04-08T00:06:49.681Z,71.46
2023-04-08T00:09:17.909Z,71.54
2023-04-08T00:11:45.842Z,71.42
2023-04-08T00:14:13.757Z,71.12
2023-04-08T00:16:41.688Z,71.13
2023-04-08T00:19:09.741Z,70.99
2023-04-08T00:21:37.624Z,71.08
2023-04-08T00:24:07.303Z,70.94
2023-04-08T00:26:35.632Z,70.74
2023-04-08T00:29:03.737Z,70.78
2023-04-08T00:31:31.879Z,70.84
2023-04-08T00:33:59.940Z,70.72
2023-04-08T00:36:28.352Z,70.75
2023-04-08T00:38:56.695Z,70.51
2023-04-08T00:41:24.722Z,70.25
2023-04-08T00:43:53.147Z,70.08
2023-04-08T00:46:22.003Z,70.19
2023-04-08T00:48:50.287Z,69.82
2023-04-08T00:51:19.728Z,70.05
2023-04-08T00:53:47.549Z,70.00
2023-04-08T00:56:15.435Z,69.91
2023-04-08T00:58:43.364Z,69.95
2023-04-08T01:01:19.194Z,69.82
2023-04-08T01:04:01.966Z,69.89
2023-04-08T01:07:10.742Z,69.36
2023-04-08T01:09:40.022Z,69.12
2023-04-08T01:12:12.337Z,69.24
2023-04-08T01:14:44.323Z,69.37
2023-04-08T01:17:12.520Z,69.35
2023-04-08T01:19:45.136Z,69.38
2023-04-08T01:22:26.647Z,69.26
2023-04-08T01:25:12.980Z,69.24
2023-04-08T01:27:42.784Z,69.05
2023-04-08T01:30:12.193Z,68.74
2023-04-08T01:32:43.652Z,68.75
2023-04-08T01:35:12.874Z,68.67
2023-04-08T01:37:42.572Z,68.78
2023-04-08T01:40:11.977Z,68.58
2023-04-08T01:42:40.738Z,68.38
2023-04-08T01:45:10.797Z,68.28
2023-04-08T01:47:39.936Z,68.25
2023-04-08T01:50:09.841Z,67.49
2023-04-08T01:52:40.497Z,67.40
2023-04-08T01:55:08.638Z,67.63
2023-04-08T01:57:38.776Z,67.42
2023-04-08T02:00:13.607Z,67.47
2023-04-08T02:02:53.594Z,67.62
2023-04-08T02:05:21.877Z,67.54
2023-04-08T02:07:50.628Z,67.58
2023-04-08T02:10:18.652Z,67.41
2023-04-08T02:12:47.459Z,67.37
2023-04-08T02:15:16.092Z,67.43
2023-04-08T02:17:46.401Z,67.22
2023-04-08T02:21:06.773Z,67.16
2023-04-08T02:23:36.938Z,67.28
2023-04-08T02:26:14.095Z,67.57
2023-04-08T02:28:43.322Z,67.57
2023-04-08T02:31:16.119Z,67.70
2023-04-08T02:33:48.626Z,67.76
2023-04-08T02:36:17.620Z,67.95
2023-04-08T02:38:50.417Z,67.91
2023-04-08T02:41:18.558Z,67.89
2023-04-08T02:43:48.219Z,67.71
2023-04-08T02:46:16.442Z,67.48
2023-04-08T02:48:44.670Z,67.27
2023-04-08T02:51:12.597Z,67.40
2023-04-08T02:53:40.542Z,67.49
2023-04-08T02:56:12.213Z,67.45
2023-04-08T02:58:40.181Z,67.49
2023-04-08T03:01:28.085Z,67.47
2023-04-08T03:03:56.390Z,67.43
2023-04-08T03:06:24.368Z,67.60
2023-04-08T03:08:52.498Z,67.39
2023-04-08T03:11:21.720Z,67.35
2023-04-08T03:13:49.980Z,67.63
2023-04-08T03:16:17.869Z,67.66
2023-04-08T03:18:45.775Z,67.83
2023-04-08T03:21:13.624Z,67.97
2023-04-08T03:23:41.554Z,68.11
2023-04-08T03:26:09.712Z,67.95
2023-04-08T03:28:37.669Z,68.10
2023-04-08T03:31:05.973Z,68.05
2023-04-08T03:33:34.075Z,68.07
2023-04-08T03:36:02.006Z,68.14
2023-04-08T03:38:29.891Z,68.13
2023-04-08T03:40:57.890Z,68.28
2023-04-08T03:43:26.404Z,68.49
2023-04-08T03:45:54.298Z,68.49
2023-04-08T03:48:23.337Z,68.54
2023-04-08T03:50:51.659Z,68.69
2023-04-08T03:53:19.720Z,68.64
2023-04-08T03:55:51.122Z,68.80
2023-04-08T03:58:22.887Z,68.74
2023-04-08T04:00:50.890Z,68.66
2023-04-08T04:03:19.923Z,68.56
2023-04-08T04:05:47.926Z,68.52
2023-04-08T04:08:15.864Z,68.51
2023-04-08T04:10:43.688Z,68.62
2023-04-08T04:13:11.650Z,68.75
2023-04-08T04:15:41.091Z,68.76
2023-04-08T04:18:09.158Z,68.73
2023-04-08T04:20:42.077Z,68.80
2023-04-08T04:23:10.529Z,68.71
2023-04-08T04:25:41.780Z,68.74
2023-04-08T04:28:10.299Z,68.59
2023-04-08T04:30:39.437Z,68.43
2023-04-08T04:33:07.868Z,68.50
2023-04-08T04:35:35.798Z,68.34
2023-04-08T04:38:05.734Z,68.38
2023-04-08T04:40:33.564Z,68.42
2023-04-08T04:43:01.900Z,68.38
2023-04-08T04:45:30.084Z,68.16
2023-04-08T04:47:58.062Z,68.10
2023-04-08T04:50:26.325Z,67.95
2023-04-08T04:53:14.581Z,68.02
2023-04-08T04:55:42.533Z,67.86
2023-04-08T04:58:10.562Z,68.03
2023-04-08T05:00:38.666Z,68.00
2023-04-08T05:03:06.677Z,68.02
2023-04-08T05:05:35.036Z,68.01
2023-04-08T05:08:03.055Z,67.80
2023-04-08T05:10:31.303Z,67.74
2023-04-08T05:13:39.431Z,67.67
2023-04-08T05:16:07.845Z,67.54
2023-04-08T05:18:36.151Z,67.64
2023-04-08T05:21:04.139Z,67.38
2023-04-08T05:23:32.132Z,67.44
2023-04-08T05:26:00.191Z,67.09
2023-04-08T05:28:28.171Z,66.51
2023-04-08T05:30:56.481Z,66.49
2023-04-08T05:33:25.662Z,66.25
2023-04-08T05:35:53.721Z,66.24
2023-04-08T05:38:21.847Z,66.19
2023-04-08T05:40:49.756Z,65.86
2023-04-08T05:43:17.689Z,65.50
2023-04-08T05:45:45.815Z,65.25
2023-04-08T05:48:13.764Z,65.03
2023-04-08T05:50:43.239Z,65.19
2023-04-08T05:53:11.415Z,64.70
2023-04-08T05:55:39.282Z,64.49
2023-04-08T05:58:07.459Z,64.35
2023-04-08T06:00:35.434Z,64.42
2023-04-08T06:03:03.714Z,64.38
2023-04-08T06:05:31.899Z,63.93
2023-04-08T06:07:59.807Z,64.20
2023-04-08T06:10:27.655Z,64.18
2023-04-08T06:12:55.547Z,63.83
2023-04-08T06:15:23.441Z,63.26
2023-04-08T06:17:51.669Z,62.95
2023-04-08T06:20:19.627Z,62.82
2023-04-08T06:22:48.009Z,61.63
2023-04-08T06:25:17.175Z,60.65
2023-04-08T06:27:45.125Z,61.00
2023-04-08T06:30:13.044Z,60.13
2023-04-08T06:32:40.978Z,59.73
2023-04-08T06:35:09.110Z,59.87
2023-04-08T06:37:38.797Z,59.61
2023-04-08T06:40:07.644Z,59.60
2023-04-08T06:42:36.221Z,59.61
2023-04-08T06:45:11.389Z,59.84
2023-04-08T06:47:39.695Z,59.34
2023-04-08T06:50:07.965Z,59.42
2023-04-08T06:52:35.876Z,59.23
2023-04-08T06:55:03.926Z,58.53
2023-04-08T06:57:52.119Z,58.06
2023-04-08T07:00:20.105Z,58.26
2023-04-08T07:02:48.311Z,57.93
2023-04-08T07:05:37.185Z,57.67
2023-04-08T07:08:11.663Z,57.63
2023-04-08T07:10:39.741Z,57.30
2023-04-08T07:13:07.667Z,56.94
2023-04-08T07:15:35.666Z,56.19
2023-04-08T07:18:04.897Z,54.36
2023-04-08T07:20:38.537Z,54.19
2023-04-08T07:23:06.572Z,54.64
2023-04-08T07:25:35.519Z,54.44
2023-04-08T07:28:03.790Z,53.53
2023-04-08T07:30:31.758Z,51.82
2023-04-08T07:33:00.928Z,51.16
2023-04-08T07:35:29.566Z,51.11
2023-04-08T07:38:01.679Z,51.67
2023-04-08T07:40:30.338Z,52.22
2023-04-08T07:42:58.326Z,52.36
2023-04-08T07:45:26.263Z,52.90
2023-04-08T07:47:54.126Z,53.02
2023-04-08T07:50:22.743Z,51.84
2023-04-08T07:52:51.212Z,51.22
2023-04-08T07:55:19.156Z,50.23
2023-04-08T07:57:47.334Z,50.45
2023-04-08T08:00:21.650Z,50.15
2023-04-08T08:02:49.643Z,49.66
2023-04-08T08:05:17.796Z,49.30
2023-04-08T08:07:45.778Z,48.39
2023-04-08T08:10:13.984Z,48.11
2023-04-08T08:12:42.274Z,46.91
2023-04-08T08:15:10.846Z,46.34
2023-04-08T08:17:38.824Z,45.49
2023-04-08T08:20:07.969Z,44.80
2023-04-08T08:22:41.837Z,45.07
2023-04-08T08:25:18.688Z,45.52
2023-04-08T08:27:47.029Z,45.31
2023-04-08T08:30:15.064Z,45.94
2023-04-08T08:32:43.360Z,45.55
2023-04-08T08:35:11.226Z,44.93
2023-04-08T08:37:39.107Z,44.85
2023-04-08T08:40:07.540Z,43.82
2023-04-08T08:42:35.521Z,43.71
2023-04-08T08:45:04.039Z,42.64
2023-04-08T08:47:32.002Z,42.25
2023-04-08T08:50:00.021Z,42.42
2023-04-08T08:52:28.006Z,42.36
2023-04-08T08:54:59.370Z,40.81
2023-04-08T08:57:27.355Z,41.41
2023-04-08T08:59:55.269Z,41.31
2023-04-08T09:02:33.335Z,41.03
2023-04-08T09:05:21.813Z,38.94
2023-04-08T09:07:49.895Z,38.42
2023-04-08T09:10:26.694Z,38.62
2023-04-08T09:12:56.708Z,39.49
2023-04-08T09:15:24.682Z,40.00
2023-04-08T09:17:52.817Z,39.25
2023-04-08T09:20:20.887Z,39.18
2023-04-08T09:22:59.757Z,39.48
2023-04-08T09:25:28.861Z,40.10
2023-04-08T09:27:56.897Z,40.33
2023-04-08T09:30:26.520Z,39.85
2023-04-08T09:32:56.827Z,39.49
2023-04-08T09:35:26.186Z,38.93
2023-04-08T09:37:54.440Z,39.06
2023-04-08T09:40:25.420Z,39.62
2023-04-08T09:42:56.394Z,39.61
2023-04-08T09:45:26.137Z,39.32
2023-04-08T09:48:15.859Z,38.57
2023-04-08T09:50:52.827Z,37.94
2023-04-08T09:53:30.463Z,37.45
2023-04-08T09:56:00.809Z,37.38
2023-04-08T09:58:33.222Z,36.41
2023-04-08T10:01:02.284Z,36.21
2023-04-08T10:03:37.549Z,35.88
2023-04-08T10:06:08.844Z,36.05
2023-04-08T10:08:36.778Z,36.05
2023-04-08T10:11:05.188Z,36.32
2023-04-08T10:13:34.451Z,36.72
2023-04-08T10:16:27.609Z,36.94
2023-04-08T10:18:57.323Z,36.90
2023-04-08T10:21:51.127Z,36.95
2023-04-08T10:24:24.324Z,37.41
2023-04-08T10:26:52.400Z,37.73
2023-04-08T10:29:29.354Z,37.82
2023-04-08T10:31:58.012Z,38.24
2023-04-08T10:34:27.321Z,38.54
2023-04-08T10:36:58.955Z,38.94
2023-04-08T10:39:27.602Z,38.84
2023-04-08T10:41:56.435Z,38.84
2023-04-08T10:44:29.518Z,38.72
2023-04-08T10:46:57.960Z,38.02
2023-04-08T10:49:33.920Z,38.03
2023-04-08T10:52:07.481Z,37.38
2023-04-08T10:54:36.536Z,36.60
2023-04-08T10:57:05.443Z,36.13
2023-04-08T10:59:33.647Z,36.45
2023-04-08T11:02:02.715Z,36.22
2023-04-08T11:04:31.216Z,36.48
2023-04-08T11:06:59.708Z,36.87
2023-04-08T11:09:27.664Z,37.00
2023-04-08T11:11:56.740Z,37.50
2023-04-08T11:14:25.782Z,37.87
2023-04-08T11:16:54.018Z,38.05
2023-04-08T11:19:23.086Z,38.54
2023-04-08T11:21:52.154Z,38.93
2023-04-08T11:24:22.496Z,39.19
2023-04-08T11:26:51.130Z,39.51
2023-04-08T11:29:19.461Z,39.51
2023-04-08T11:31:49.709Z,39.33
2023-04-08T11:34:25.162Z,39.98
2023-04-08T11:36:53.444Z,40.68
2023-04-08T11:39:24.477Z,41.30
2023-04-08T11:41:53.399Z,41.55
2023-04-08T11:44:30.759Z,42.03
2023-04-08T11:46:58.825Z,42.26
2023-04-08T11:49:26.895Z,42.33
2023-04-08T11:51:59.423Z,42.55
2023-04-08T11:54:29.452Z,42.54
2023-04-08T11:56:58.516Z,42.64
2023-04-08T11:59:29.009Z,42.81
2023-04-08T12:01:58.286Z,42.64
2023-04-08T12:04:26.442Z,42.69
2023-04-08T12:06:55.365Z,42.81
2023-04-08T12:09:24.868Z,43.09
2023-04-08T12:11:52.811Z,43.40
2023-04-08T12:14:22.132Z,43.61
2023-04-08T12:16:50.082Z,43.87
2023-04-08T12:19:17.957Z,44.11
2023-04-08T12:21:45.999Z,44.48
2023-04-08T12:24:13.926Z,44.95
2023-04-08T12:26:41.851Z,45.28
2023-04-08T12:29:11.984Z,45.48
2023-04-08T12:31:40.271Z,45.61
2023-04-08T12:34:08.422Z,45.88
2023-04-08T12:36:36.464Z,45.91
2023-04-08T12:39:04.454Z,46.03
2023-04-08T12:41:32.348Z,46.24
2023-04-08T12:44:01.164Z,46.55
2023-04-08T12:46:29.583Z,46.79
2023-04-08T12:49:04.229Z,47.24
2023-04-08T12:51:32.999Z,47.29
2023-04-08T12:54:01.466Z,47.43
2023-04-08T12:56:29.910Z,47.66
2023-04-08T12:58:59.066Z,47.66
2023-04-08T13:01:27.869Z,47.91
2023-04-08T13:03:55.807Z,48.20
2023-04-08T13:06:23.877Z,48.16
2023-04-08T13:08:52.059Z,48.45
2023-04-08T13:11:21.399Z,48.75
2023-04-08T13:13:49.549Z,48.83
2023-04-08T13:16:17.688Z,48.96
2023-04-08T13:18:45.770Z,49.39
2023-04-08T13:21:13.606Z,49.86
2023-04-08T13:23:41.632Z,50.10
2023-04-08T13:26:09.563Z,50.29
2023-04-08T13:28:46.682Z,50.67
2023-04-08T13:31:22.163Z,51.07
2023-04-08T13:33:50.157Z,51.48
2023-04-08T13:36:18.117Z,51.83
2023-04-08T13:38:46.356Z,52.25
2023-04-08T13:41:14.353Z,52.44
2023-04-08T13:43:42.442Z,52.74
2023-04-08T13:46:10.514Z,52.80
2023-04-08T13:48:38.525Z,52.81
2023-04-08T13:51:06.504Z,53.22
2023-04-08T13:53:34.331Z,53.17
2023-04-08T13:56:02.202Z,53.34
2023-04-08T13:58:30.143Z,53.43
2023-04-08T14:00:58.422Z,53.48
2023-04-08T14:03:26.684Z,53.63
2023-04-08T14:05:54.718Z,53.62
2023-04-08T14:08:25.957Z,53.88
2023-04-08T14:10:56.479Z,53.76
2023-04-08T14:13:24.387Z,53.89
2023-04-08T14:15:53.745Z,53.88
2023-04-08T14:18:21.764Z,54.08
2023-04-08T14:20:49.673Z,54.10
2023-04-08T14:23:17.637Z,54.20
2023-04-08T14:25:45.723Z,54.33
2023-04-08T14:28:13.707Z,54.46
2023-04-08T14:30:41.786Z,54.29
2023-04-08T14:33:09.620Z,54.36
2023-04-08T14:35:37.908Z,54.39
2023-04-08T14:38:05.922Z,54.32
2023-04-08T14:40:35.038Z,54.21
2023-04-08T14:43:04.532Z,54.04
2023-04-08T14:45:33.326Z,53.96
2023-04-08T14:48:01.445Z,53.83
2023-04-08T14:50:30.708Z,53.79
2023-04-08T14:52:58.787Z,53.86
2023-04-08T14:55:28.652Z,53.85
2023-04-08T14:57:57.746Z,54.02
2023-04-08T15:00:27.123Z,54.01
2023-04-08T15:02:55.097Z,54.09
2023-04-08T15:05:23.347Z,53.98
2023-04-08T15:07:51.886Z,54.03
2023-04-08T15:10:19.862Z,54.07
2023-04-08T15:12:47.762Z,54.00
2023-04-08T15:15:15.732Z,54.21
2023-04-08T15:17:43.697Z,54.20
2023-04-08T15:20:11.942Z,54.42
2023-04-08T15:22:40.069Z,54.28
2023-04-08T15:25:08.448Z,54.39
2023-04-08T15:27:37.670Z,54.35
2023-04-08T15:30:07.120Z,54.44
2023-04-08T15:32:35.134Z,54.45
2023-04-08T15:35:03.270Z,54.66
2023-04-08T15:37:31.362Z,54.70
2023-04-08T15:39:59.231Z,54.71
2023-04-08T15:42:27.528Z,54.89
2023-04-08T15:44:55.645Z,54.77
2023-04-08T15:47:23.904Z,55.02
2023-04-08T15:49:56.128Z,54.98
2023-04-08T15:52:24.910Z,54.94
2023-04-08T15:54:52.829Z,55.06
2023-04-08T15:57:26.888Z,55.08
2023-04-08T15:59:54.814Z,55.15
2023-04-08T16:02:22.810Z,55.31
2023-04-08T16:04:50.813Z,55.14
2023-04-08T16:07:26.727Z,55.20
2023-04-08T16:09:54.576Z,55.11
2023-04-08T16:12:22.541Z,55.16
2023-04-08T16:14:51.160Z,55.05
2023-04-08T16:17:19.069Z,55.14
2023-04-08T16:19:47.285Z,55.12
2023-04-08T16:22:15.373Z,55.24
2023-04-08T16:24:43.192Z,55.32
2023-04-08T16:27:11.318Z,55.40
2023-04-08T16:29:39.196Z,55.42
2023-04-08T16:32:07.424Z,55.59
2023-04-08T16:34:35.389Z,55.57
2023-04-08T16:37:04.101Z,55.61
2023-04-08T16:39:32.105Z,55.69
2023-04-08T16:42:00.669Z,55.55
2023-04-08T16:44:28.939Z,55.72
2023-04-08T16:46:56.864Z,55.75
2023-04-08T16:49:25.090Z,55.89
2023-04-08T16:51:53.199Z,55.97
2023-04-08T16:54:21.249Z,55.90
2023-04-08T16:56:49.089Z,56.00
2023-04-08T16:59:17.008Z,55.96
2023-04-08T17:01:44.908Z,56.12
2023-04-08T17:04:12.849Z,56.15
2023-04-08T17:06:42.303Z,56.12
2023-04-08T17:09:10.712Z,56.18
2023-04-08T17:11:38.522Z,56.18
2023-04-08T17:14:06.539Z,56.24
2023-04-08T17:16:34.635Z,56.23
2023-04-08T17:19:02.575Z,56.26
2023-04-08T17:21:31.322Z,56.27
2023-04-08T17:23:59.235Z,56.41
2023-04-08T17:26:28.393Z,56.39
2023-04-08T17:28:56.606Z,56.49
2023-04-08T17:31:24.472Z,56.55
2023-04-08T17:33:52.558Z,56.78
2023-04-08T17:36:20.665Z,56.82
2023-04-08T17:38:49.470Z,56.81
2023-04-08T17:41:29.757Z,56.88
2023-04-08T17:44:04.976Z,57.03
2023-04-08T17:46:33.400Z,57.18
2023-04-08T17:49:01.577Z,57.39
2023-04-08T17:51:31.068Z,57.54
2023-04-08T17:53:59.476Z,57.49
2023-04-08T17:56:28.376Z,57.55
2023-04-08T17:58:56.544Z,57.59
2023-04-08T18:01:24.501Z,57.73
2023-04-08T18:03:53.072Z,57.68
2023-04-08T18:06:21.296Z,58.05
2023-04-08T18:08:49.588Z,58.17
2023-04-08T18:11:17.595Z,58.16
2023-04-08T18:13:46.138Z,58.44
2023-04-08T18:16:18.899Z,58.45
2023-04-08T18:18:48.249Z,58.63
2023-04-08T18:21:19.241Z,58.85
2023-04-08T18:23:47.098Z,58.89
2023-04-08T18:26:15.497Z,58.79
2023-04-08T18:28:43.652Z,58.79
2023-04-08T18:31:11.749Z,58.99
2023-04-08T18:33:40.085Z,58.99
2023-04-08T18:36:13.065Z,59.20
2023-04-08T18:38:42.011Z,59.48
2023-04-08T18:41:10.596Z,59.57
2023-04-08T18:43:38.626Z,59.58
2023-04-08T18:46:06.711Z,59.75
2023-04-08T18:48:34.889Z,59.55
2023-04-08T18:51:03.202Z,59.50
2023-04-08T18:53:31.400Z,59.39
2023-04-08T18:55:59.968Z,59.51
2023-04-08T18:58:28.374Z,59.50
2023-04-08T19:00:56.361Z,59.61
2023-04-08T19:03:24.705Z,59.70
2023-04-08T19:05:53.599Z,59.82
2023-04-08T19:08:21.714Z,60.04
2023-04-08T19:10:49.782Z,60.23
2023-04-08T19:13:18.011Z,60.31
2023-04-08T19:15:45.940Z,60.49
2023-04-08T19:18:13.862Z,60.38
2023-04-08T19:20:41.964Z,60.52
2023-04-08T19:23:11.693Z,60.66
2023-04-08T19:25:39.887Z,60.55
2023-04-08T19:28:09.239Z,60.54
2023-04-08T19:30:40.947Z,60.47
2023-04-08T19:33:09.134Z,60.56
2023-04-08T19:35:37.924Z,60.66
2023-04-08T19:38:05.881Z,60.55
2023-04-08T19:40:33.794Z,60.70
2023-04-08T19:43:01.674Z,60.82
2023-04-08T19:45:29.648Z,60.90
2023-04-08T19:47:57.580Z,60.87
2023-04-08T19:50:25.867Z,60.79
2023-04-08T19:52:53.834Z,60.88
2023-04-08T19:55:21.994Z,60.81
2023-04-08T19:57:51.900Z,60.77
2023-04-08T20:00:20.809Z,60.78
2023-04-08T20:02:48.984Z,60.70
2023-04-08T20:05:17.796Z,60.59
2023-04-08T20:07:45.736Z,60.48
2023-04-08T20:10:14.705Z,60.56
2023-04-08T20:12:42.700Z,60.44
2023-04-08T20:15:19.555Z,60.44
2023-04-08T20:17:53.979Z,60.50
2023-04-08T20:20:22.849Z,60.53
2023-04-08T20:22:51.159Z,60.41
2023-04-08T20:25:19.180Z,60.54
2023-04-08T20:27:47.081Z,60.60
2023-04-08T20:30:15.071Z,60.68
2023-04-08T20:32:43.316Z,60.67
2023-04-08T20:35:11.915Z,60.69
2023-04-08T20:37:39.785Z,60.66
2023-04-08T20:40:08.387Z,60.81
2023-04-08T20:42:36.599Z,60.81
2023-04-08T20:45:05.097Z,60.79
2023-04-08T20:47:33.582Z,60.85
2023-04-08T20:50:01.605Z,60.86
2023-04-08T20:52:29.668Z,60.91
2023-04-08T20:54:57.756Z,60.79
2023-04-08T20:57:25.851Z,60.92
2023-04-08T20:59:53.761Z,61.19
2023-04-08T21:02:21.884Z,61.19
2023-04-08T21:04:50.105Z,61.35
2023-04-08T21:07:18.251Z,61.34
2023-04-08T21:09:49.242Z,61.57
2023-04-08T21:12:17.125Z,61.82
2023-04-08T21:14:47.925Z,61.70
2023-04-08T21:17:15.878Z,61.93
2023-04-08T21:19:43.729Z,61.91
2023-04-08T21:22:11.757Z,61.90
2023-04-08T21:24:39.780Z,61.85
2023-04-08T21:27:07.607Z,61.96
2023-04-08T21:29:35.582Z,62.26
2023-04-08T21:32:03.550Z,62.72
2023-04-08T21:34:31.417Z,62.84
2023-04-08T21:36:59.334Z,62.90
2023-04-08T21:39:27.275Z,62.94
2023-04-08T21:41:55.079Z,63.12
2023-04-08T21:44:23.707Z,63.47
2023-04-08T21:46:51.574Z,63.58
2023-04-08T21:49:19.426Z,63.80
2023-04-08T21:51:47.555Z,63.95
2023-04-08T21:54:15.650Z,63.88
2023-04-08T21:56:43.810Z,63.95
2023-04-08T21:59:11.598Z,64.02
2023-04-08T22:01:39.689Z,64.14
2023-04-08T22:04:07.913Z,64.18
2023-04-08T22:06:35.859Z,63.95
2023-04-08T22:09:04.078Z,64.04
2023-04-08T22:11:31.911Z,64.08
2023-04-08T22:13:59.795Z,64.06
2023-04-08T22:16:27.883Z,64.29
2023-04-08T22:18:56.473Z,64.35
2023-04-08T22:21:25.182Z,64.42
2023-04-08T22:23:53.303Z,64.48
2023-04-08T22:26:21.670Z,64.62
2023-04-08T22:28:49.692Z,64.68
2023-04-08T22:31:18.285Z,64.66
2023-04-08T22:33:46.873Z,64.67
2023-04-08T22:36:14.745Z,64.60
2023-04-08T22:38:42.692Z,64.68
2023-04-08T22:41:18.976Z,64.70
2023-04-08T22:43:47.017Z,64.59
2023-04-08T22:46:18.119Z,64.48
2023-04-08T22:48:46.723Z,64.54
2023-04-08T22:51:14.625Z,64.50
2023-04-08T22:53:42.859Z,64.44
2023-04-08T22:56:10.821Z,64.25
2023-04-08T22:58:38.659Z,64.42
2023-04-08T23:01:20.832Z,64.30
2023-04-08T23:03:49.917Z,64.30
2023-04-08T23:06:18.580Z,64.42
2023-04-08T23:08:46.401Z,64.53
2023-04-08T23:11:14.252Z,64.61
2023-04-08T23:13:42.318Z,64.40
2023-04-08T23:16:10.652Z,64.56
2023-04-08T23:18:38.700Z,64.66
2023-04-08T23:21:06.838Z,64.82
2023-04-08T23:23:34.774Z,64.69
2023-04-08T23:26:02.640Z,64.71
2023-04-08T23:28:30.632Z,64.55
2023-04-08T23:30:58.588Z,64.60
2023-04-08T23:33:26.706Z,64.47
2023-04-08T23:36:06.894Z,64.34
2023-04-08T23:38:37.035Z,64.27
2023-04-08T23:41:06.208Z,64.31
2023-04-08T23:43:35.052Z,64.25
2023-04-08T23:46:43.719Z,64.31
2023-04-08T23:49:11.639Z,64.40
2023-04-08T23:51:39.571Z,64.48
2023-04-08T23:54:07.437Z,64.36
2023-04-08T23:56:56.531Z,64.36
2023-04-08T23:59:24.348Z,64.31
